Time;durP1;ratioP1;P1;durP2;ratioP2;P2;SDS_P1;SDS_P2;PMS_P1;PMS_P2;Temp;Humidity;BMP_temperature;BMP_pressure;BME280_temperature;BME280_humidity;BME280_pressure;Samples;Min_cycle;Max_cycle;Signal;HPM_P1;HPM_P2
2022/08/07 00:00:08;;;;;;;8.43;7.53;;;12.40;82.60;;;;;;5016871;28;20205;-86
2022/08/07 00:02:34;;;;;;;11.97;8.47;;;12.40;82.70;;;;;;5015189;28;20219;-86
2022/08/07 00:04:59;;;;;;;12.40;8.87;;;12.40;82.60;;;;;;5016739;28;20182;-86
2022/08/07 00:07:25;;;;;;;11.77;8.50;;;12.40;82.50;;;;;;5015422;28;20201;-86
2022/08/07 00:09:50;;;;;;;10.13;7.27;;;12.40;83.20;;;;;;5016714;28;20216;-87
2022/08/07 00:12:16;;;;;;;9.17;7.27;;;12.40;83.10;;;;;;5019029;28;20185;-85
2022/08/07 00:14:41;;;;;;;10.70;6.63;;;12.40;82.70;;;;;;5017457;28;20668;-87
2022/08/07 00:17:07;;;;;;;7.50;6.23;;;12.20;82.20;;;;;;5015868;28;20220;-86
2022/08/07 00:19:33;;;;;;;8.40;6.73;;;12.00;82.20;;;;;;5015274;28;20548;-86
2022/08/07 00:21:59;;;;;;;11.00;6.50;;;12.00;82.40;;;;;;5016138;28;20251;-86
2022/08/07 00:24:24;;;;;;;8.63;6.60;;;12.00;82.20;;;;;;5014568;28;20181;-86
2022/08/07 00:26:51;;;;;;;6.77;6.17;;;12.00;82.00;;;;;;5014508;28;20212;-86
2022/08/07 00:29:18;;;;;;;10.87;5.97;;;12.10;81.80;;;;;;5014535;28;20267;-86
2022/08/07 00:31:43;;;;;;;9.93;6.00;;;12.00;81.60;;;;;;5014381;28;20655;-86
2022/08/07 00:34:09;;;;;;;7.07;5.97;;;11.90;81.60;;;;;;5015648;28;20196;-85
2022/08/07 00:36:36;;;;;;;9.63;6.40;;;11.90;81.50;;;;;;5014399;28;20193;-85
2022/08/07 00:39:02;;;;;;;7.93;6.30;;;11.90;81.40;;;;;;5015986;28;20537;-86
2022/08/07 00:41:32;;;;;;;6.90;5.70;;;11.90;81.10;;;;;;5013869;28;20177;-85
2022/08/07 00:43:58;;;;;;;8.90;5.60;;;11.80;81.00;;;;;;5015022;28;20181;-86
2022/08/07 00:46:23;;;;;;;7.30;5.33;;;11.80;81.00;;;;;;5013456;28;20209;-85
2022/08/07 00:48:49;;;;;;;6.00;5.40;;;11.80;80.80;;;;;;5015167;28;20280;-86
2022/08/07 00:51:14;;;;;;;4.67;4.27;;;11.80;80.70;;;;;;5013584;28;20577;-86
2022/08/07 00:53:40;;;;;;;6.57;5.87;;;11.70;80.50;;;;;;5013615;28;20174;-85
2022/08/07 00:56:06;;;;;;;7.30;5.43;;;11.70;80.30;;;;;;5015013;28;20275;-86
2022/08/07 00:58:32;;;;;;;9.33;6.43;;;11.70;80.10;;;;;;5014889;28;20172;-86
2022/08/07 01:00:58;;;;;;;9.20;6.10;;;11.60;80.10;;;;;;5014317;28;20181;-86
2022/08/07 01:03:23;;;;;;;6.73;6.03;;;11.60;80.20;;;;;;5013915;28;20235;-86
2022/08/07 01:05:51;;;;;;;6.47;5.87;;;11.50;80.30;;;;;;5014931;28;20730;-86
2022/08/07 01:08:16;;;;;;;7.87;5.63;;;11.50;80.30;;;;;;5015340;28;20177;-86
2022/08/07 01:10:42;;;;;;;8.43;5.50;;;11.40;80.20;;;;;;5014215;28;20709;-85
2022/08/07 01:13:08;;;;;;;6.17;5.57;;;11.40;80.10;;;;;;5013683;28;20173;-86
2022/08/07 01:15:35;;;;;;;9.10;6.50;;;11.40;80.00;;;;;;5013043;28;20221;-86
2022/08/07 01:18:01;;;;;;;12.17;6.63;;;11.30;80.10;;;;;;5015140;28;20180;-85
2022/08/07 01:20:33;;;;;;;12.67;6.10;;;11.20;80.50;;;;;;5015181;28;20177;-86
2022/08/07 01:23:00;;;;;;;8.67;6.10;;;11.10;80.80;;;;;;5014962;28;20236;-86
2022/08/07 01:25:27;;;;;;;6.57;5.97;;;11.10;80.90;;;;;;5013722;28;20713;-86
2022/08/07 01:27:53;;;;;;;6.67;5.87;;;11.10;80.90;;;;;;5015314;28;20174;-86
2022/08/07 01:30:19;;;;;;;9.73;5.77;;;11.20;80.80;;;;;;5013809;28;20201;-86
2022/08/07 01:32:45;;;;;;;12.50;5.90;;;11.20;80.70;;;;;;5015040;28;20201;-86
2022/08/07 01:35:11;;;;;;;6.67;5.57;;;11.20;80.60;;;;;;5013542;28;20173;-86
2022/08/07 01:37:36;;;;;;;10.07;6.07;;;11.10;80.40;;;;;;5013471;28;20549;-85
2022/08/07 01:40:04;;;;;;;6.87;6.10;;;11.10;80.30;;;;;;5013400;28;20190;-86
2022/08/07 01:42:30;;;;;;;8.20;5.90;;;11.10;80.10;;;;;;5013311;28;20188;-86
2022/08/07 01:44:56;;;;;;;9.30;6.80;;;11.10;80.00;;;;;;5013283;28;20181;-86
2022/08/07 01:47:22;;;;;;;6.70;5.97;;;11.00;80.00;;;;;;5012878;28;20586;-86
2022/08/07 01:49:48;;;;;;;7.63;6.80;;;11.10;80.00;;;;;;5013081;28;20196;-86
2022/08/07 01:52:14;;;;;;;8.63;6.83;;;11.00;80.00;;;;;;5013066;28;20226;-86
2022/08/07 01:54:43;;;;;;;9.83;6.30;;;11.00;80.00;;;;;;5014123;28;20670;-86
2022/08/07 01:57:20;;;;;;;7.30;6.40;;;11.00;80.00;;;;;;5012788;28;20201;-85
2022/08/07 01:59:52;;;;;;;8.00;6.87;;;10.90;80.30;;;;;;5013067;28;20165;-86
2022/08/07 02:02:26;;;;;;;7.70;6.80;;;10.80;81.00;;;;;;5014007;28;20165;-86
2022/08/07 02:05:02;;;;;;;7.53;6.73;;;10.70;81.50;;;;;;5013564;28;20238;-86
2022/08/07 02:07:33;;;;;;;10.10;6.87;;;10.60;82.20;;;;;;5013309;28;20288;-85
2022/08/07 02:10:00;;;;;;;11.67;8.30;;;10.70;82.10;;;;;;5013307;28;20255;-86
2022/08/07 02:12:29;;;;;;;12.13;9.00;;;10.70;82.10;;;;;;5013362;28;20169;-85
2022/08/07 02:14:57;;;;;;;11.07;9.07;;;10.80;83.40;;;;;;5013231;28;20185;-86
2022/08/07 02:17:23;;;;;;;10.30;8.60;;;10.80;83.60;;;;;;5012837;28;20200;-86
2022/08/07 02:19:51;;;;;;;11.00;8.83;;;10.80;83.50;;;;;;5013189;28;20272;-85
2022/08/07 02:22:19;;;;;;;14.60;8.93;;;10.80;84.10;;;;;;5014814;28;20187;-86
2022/08/07 02:24:49;;;;;;;11.60;9.40;;;10.80;84.60;;;;;;5015385;28;20178;-86
2022/08/07 02:27:17;;;;;;;11.37;10.20;;;10.80;84.70;;;;;;5017277;28;20639;-86
2022/08/07 02:29:44;;;;;;;13.40;9.83;;;10.80;84.90;;;;;;5017535;28;20255;-86
2022/08/07 02:32:11;;;;;;;11.87;9.13;;;10.80;84.80;;;;;;5017870;28;20170;-86
2022/08/07 02:34:38;;;;;;;11.13;9.43;;;10.90;84.80;;;;;;5017711;28;20173;-86
2022/08/07 02:37:07;;;;;;;11.77;9.17;;;11.00;85.00;;;;;;5016438;28;20272;-85
2022/08/07 02:39:35;;;;;;;16.90;9.90;;;10.90;85.30;;;;;;5018340;28;20170;-86
2022/08/07 02:42:02;;;;;;;8.27;7.37;;;11.00;85.10;;;;;;5016977;28;20180;-86
2022/08/07 02:44:28;;;;;;;11.37;7.87;;;10.90;84.70;;;;;;5016650;28;20671;-86
2022/08/07 02:46:56;;;;;;;14.53;8.33;;;10.70;84.70;;;;;;5016407;28;20217;-86
2022/08/07 02:49:23;;;;;;;11.10;7.73;;;10.60;85.00;;;;;;5017187;28;20197;-86
2022/08/07 02:51:49;;;;;;;8.17;7.23;;;10.60;84.90;;;;;;5017772;28;20660;-86
2022/08/07 02:54:19;;;;;;;11.90;7.93;;;10.70;84.70;;;;;;5016173;28;20174;-85
2022/08/07 02:56:46;;;;;;;7.63;6.83;;;10.60;84.50;;;;;;5017270;28;20248;-86
2022/08/07 02:59:17;;;;;;;10.60;6.63;;;10.60;84.10;;;;;;5017165;28;20160;-86
2022/08/07 03:01:44;;;;;;;12.60;6.83;;;10.60;84.10;;;;;;5017180;28;20165;-86
2022/08/07 03:04:12;;;;;;;9.13;7.00;;;10.50;83.90;;;;;;5016027;28;20177;-86
2022/08/07 03:06:39;;;;;;;10.97;7.60;;;10.50;83.80;;;;;;5015991;28;20201;-86
2022/08/07 03:09:06;;;;;;;8.33;6.07;;;10.40;83.50;;;;;;5017394;28;20173;-86
2022/08/07 03:11:34;;;;;;;7.77;6.40;;;10.40;83.30;;;;;;5017150;28;20212;-86
2022/08/07 03:14:02;;;;;;;7.80;6.77;;;10.40;83.30;;;;;;5015947;28;20598;-86
2022/08/07 03:16:30;;;;;;;7.80;6.73;;;10.30;83.10;;;;;;5017077;28;20193;-85
2022/08/07 03:18:56;;;;;;;7.03;6.00;;;10.40;83.00;;;;;;5017140;28;20165;-85
2022/08/07 03:21:23;;;;;;;7.57;6.80;;;10.30;82.70;;;;;;5015831;28;20542;-86
2022/08/07 03:23:51;;;;;;;8.57;6.33;;;10.30;82.60;;;;;;5017197;28;20169;-86
2022/08/07 03:26:19;;;;;;;8.63;6.20;;;10.30;82.40;;;;;;5015591;28;20717;-86
2022/08/07 03:28:46;;;;;;;10.63;6.50;;;10.30;82.20;;;;;;5015759;28;20212;-86
2022/08/07 03:31:18;;;;;;;8.60;6.77;;;10.30;82.20;;;;;;5017100;28;20702;-86
2022/08/07 03:33:48;;;;;;;7.30;6.43;;;10.30;82.10;;;;;;5016007;28;20176;-86
2022/08/07 03:36:15;;;;;;;9.10;6.13;;;10.30;81.90;;;;;;5015634;28;20197;-86
2022/08/07 03:38:42;;;;;;;7.53;5.87;;;10.20;81.90;;;;;;5016200;28;20208;-86
2022/08/07 03:41:09;;;;;;;8.30;5.80;;;10.20;82.00;;;;;;5015434;28;20178;-86
2022/08/07 03:43:36;;;;;;;7.63;5.50;;;10.20;81.90;;;;;;5015094;28;20184;-86
2022/08/07 03:46:03;;;;;;;6.73;5.80;;;10.10;81.90;;;;;;5016615;28;20213;-86
2022/08/07 03:48:30;;;;;;;6.03;5.37;;;10.10;81.80;;;;;;5015254;28;20177;-86
2022/08/07 03:50:56;;;;;;;5.90;5.30;;;10.10;81.80;;;;;;5016708;28;20201;-86
2022/08/07 03:53:21;;;;;;;6.40;5.67;;;10.00;81.60;;;;;;5015284;28;20666;-86
2022/08/07 03:55:49;;;;;;;9.43;6.20;;;10.00;82.00;;;;;;5017031;28;20287;-86
2022/08/07 03:58:17;;;;;;;7.20;6.17;;;10.10;82.10;;;;;;5015669;28;20180;-86
2022/08/07 04:00:44;;;;;;;6.67;5.27;;;10.10;82.00;;;;;;5015296;28;20188;-86
2022/08/07 04:03:09;;;;;;;5.73;4.93;;;10.20;82.00;;;;;;5016538;28;20212;-85
2022/08/07 04:05:35;;;;;;;5.50;5.00;;;10.20;82.30;;;;;;5016431;28;20201;-85
2022/08/07 04:08:02;;;;;;;9.03;5.30;;;10.20;82.50;;;;;;5016664;28;20174;-85
2022/08/07 04:10:29;;;;;;;5.03;4.53;;;10.30;82.40;;;;;;5016588;28;20204;-85
2022/08/07 04:12:55;;;;;;;5.90;5.37;;;10.50;82.40;;;;;;5014757;28;20200;-86
2022/08/07 04:15:21;;;;;;;5.83;5.23;;;10.60;82.30;;;;;;5015549;28;20169;-86
2022/08/07 04:17:47;;;;;;;5.83;5.20;;;10.70;82.20;;;;;;5014599;28;20743;-86
2022/08/07 04:20:13;;;;;;;5.57;4.93;;;10.80;81.80;;;;;;5015719;28;20181;-85
2022/08/07 04:22:39;;;;;;;5.97;5.23;;;10.90;81.60;;;;;;5017278;28;20663;-85
2022/08/07 04:25:05;;;;;;;6.90;5.07;;;10.90;81.20;;;;;;5015383;28;20174;-85
2022/08/07 04:27:32;;;;;;;7.87;6.30;;;10.90;81.00;;;;;;5015628;28;20320;-85
2022/08/07 04:29:58;;;;;;;6.80;6.10;;;10.80;80.80;;;;;;5015675;28;20209;-85
2022/08/07 04:32:24;;;;;;;6.77;5.93;;;10.80;80.90;;;;;;5015611;28;20180;-85
2022/08/07 04:34:50;;;;;;;7.77;6.70;;;10.80;80.90;;;;;;5016461;28;20228;-85
2022/08/07 04:37:16;;;;;;;10.90;7.43;;;10.90;80.90;;;;;;5014923;28;20224;-86
2022/08/07 04:39:41;;;;;;;9.90;8.73;;;10.90;80.90;;;;;;5015797;28;20180;-85
2022/08/07 04:42:07;;;;;;;10.67;8.83;;;11.00;81.20;;;;;;5015924;28;20184;-86
2022/08/07 04:44:34;;;;;;;14.07;10.83;;;11.00;81.60;;;;;;5015411;28;20264;-86
2022/08/07 04:47:28;;;;;;;13.10;11.10;;;11.10;84.00;;;;;;5015623;28;20217;-87
2022/08/07 04:50:34;;;;;;;12.53;10.50;;;11.00;85.50;;;;;;5016101;28;20240;-86
2022/08/07 04:53:09;;;;;;;16.37;10.83;;;11.00;86.10;;;;;;5013668;28;20268;-86
2022/08/07 04:55:48;;;;;;;17.40;10.67;;;11.00;86.50;;;;;;5016359;28;20214;-87
2022/08/07 04:58:19;;;;;;;18.77;12.50;;;11.00;86.90;;;;;;5017409;28;20177;-86
2022/08/07 05:00:48;;;;;;;18.83;12.37;;;11.10;87.70;;;;;;5019978;28;20154;-86
2022/08/07 05:03:21;;;;;;;18.77;13.77;;;11.20;88.40;;;;;;5017511;28;20283;-86
2022/08/07 05:06:08;;;;;;;24.67;14.83;;;11.20;89.00;;;;;;5017882;28;20193;-86
2022/08/07 05:08:57;;;;;;;20.30;14.10;;;11.20;89.40;;;;;;5017228;28;20161;-86
2022/08/07 05:11:30;;;;;;;20.77;15.10;;;11.20;89.80;;;;;;5017260;28;20285;-87
2022/08/07 05:14:10;;;;;;;23.20;14.70;;;11.20;90.10;;;;;;5017751;28;20212;-87
2022/08/07 05:16:38;;;;;;;22.63;14.67;;;11.30;90.50;;;;;;5017605;28;20193;-86
2022/08/07 05:19:09;;;;;;;28.83;17.23;;;11.30;90.80;;;;;;5015868;28;20165;-86
2022/08/07 05:21:36;;;;;;;26.27;16.73;;;11.40;91.10;;;;;;5014742;28;20165;-86
2022/08/07 05:24:08;;;;;;;26.73;17.80;;;11.60;91.30;;;;;;5013799;28;20181;-86
2022/08/07 05:26:35;;;;;;;26.33;17.20;;;11.60;91.40;;;;;;5013559;28;20223;-86
2022/08/07 05:29:03;;;;;;;27.87;17.10;;;11.70;91.60;;;;;;5013648;28;20170;-86
2022/08/07 05:31:37;;;;;;;32.83;17.80;;;11.80;91.70;;;;;;5013597;28;20204;-87
2022/08/07 05:34:05;;;;;;;26.33;17.37;;;11.90;91.80;;;;;;5014212;28;20162;-86
2022/08/07 05:36:32;;;;;;;32.20;18.97;;;12.00;92.00;;;;;;5014458;28;20224;-86
2022/08/07 05:38:59;;;;;;;31.37;19.43;;;12.10;92.20;;;;;;5012522;28;20174;-86
2022/08/07 05:41:25;;;;;;;29.50;18.03;;;12.30;92.30;;;;;;5013763;28;20177;-86
2022/08/07 05:43:54;;;;;;;34.47;20.30;;;12.30;92.20;;;;;;5012470;28;20610;-86
2022/08/07 05:46:21;;;;;;;30.07;19.90;;;12.40;92.20;;;;;;5012312;28;20217;-85
2022/08/07 05:48:49;;;;;;;27.97;18.57;;;12.50;92.10;;;;;;5012452;28;20188;-86
2022/08/07 05:51:15;;;;;;;30.10;18.83;;;12.50;92.00;;;;;;5013567;28;20200;-85
2022/08/07 05:53:40;;;;;;;27.40;18.97;;;12.60;91.90;;;;;;5013754;28;20168;-85
2022/08/07 05:56:08;;;;;;;28.53;19.37;;;12.70;91.80;;;;;;5013558;28;20190;-86
2022/08/07 05:58:36;;;;;;;26.03;18.57;;;12.80;91.70;;;;;;5013571;28;20635;-86
2022/08/07 06:01:02;;;;;;;29.17;18.23;;;12.90;91.60;;;;;;5013349;28;20256;-85
2022/08/07 06:03:30;;;;;;;26.27;17.83;;;13.00;91.60;;;;;;5012308;28;20207;-85
2022/08/07 06:05:57;;;;;;;28.17;18.33;;;13.10;91.70;;;;;;5013406;28;20200;-86
2022/08/07 06:08:24;;;;;;;25.77;17.50;;;13.20;91.60;;;;;;5013377;28;20216;-85
2022/08/07 06:10:50;;;;;;;23.63;15.63;;;13.30;91.50;;;;;;5012160;28;20197;-86
2022/08/07 06:13:16;;;;;;;21.33;14.63;;;13.40;91.40;;;;;;5012314;28;20169;-86
2022/08/07 06:15:43;;;;;;;20.27;14.70;;;13.50;91.10;;;;;;5013368;28;20189;-86
2022/08/07 06:18:11;;;;;;;18.47;13.87;;;13.50;90.70;;;;;;5013328;28;20193;-85
2022/08/07 06:20:38;;;;;;;16.93;11.23;;;13.60;90.00;;;;;;5012054;28;20652;-85
2022/08/07 06:23:05;;;;;;;18.10;12.30;;;13.90;89.30;;;;;;5012330;28;20596;-86
2022/08/07 06:25:32;;;;;;;15.63;11.13;;;14.00;88.90;;;;;;5012043;28;20200;-86
2022/08/07 06:28:08;;;;;;;12.47;9.47;;;14.20;89.00;;;;;;5012346;28;20185;-85
2022/08/07 06:30:38;;;;;;;15.60;10.03;;;14.20;86.60;;;;;;5012188;28;20683;-86
2022/08/07 06:33:05;;;;;;;13.10;10.23;;;14.30;86.30;;;;;;5013561;28;20220;-86
2022/08/07 06:35:33;;;;;;;11.20;8.67;;;14.50;86.70;;;;;;5013426;28;20193;-86
2022/08/07 06:37:58;;;;;;;14.83;9.20;;;14.60;85.50;;;;;;5012368;28;20176;-86
2022/08/07 06:40:25;;;;;;;12.17;9.00;;;14.70;85.40;;;;;;5012431;28;20181;-86
2022/08/07 06:42:52;;;;;;;12.03;8.37;;;14.70;84.80;;;;;;5013581;28;20669;-85
2022/08/07 06:45:19;;;;;;;11.43;8.27;;;14.80;84.20;;;;;;5012995;28;20198;-86
2022/08/07 06:47:46;;;;;;;15.80;8.53;;;14.80;83.90;;;;;;5013974;28;20174;-86
2022/08/07 06:50:12;;;;;;;8.77;7.87;;;14.90;84.20;;;;;;5012434;28;20232;-86
2022/08/07 06:52:41;;;;;;;12.33;7.60;;;15.00;84.30;;;;;;5012138;28;20315;-86
2022/08/07 06:55:18;;;;;;;8.57;7.67;;;15.00;83.80;;;;;;5013252;28;20170;-86
2022/08/07 06:57:45;;;;;;;11.03;8.30;;;15.00;83.10;;;;;;5012091;28;20212;-86
2022/08/07 07:00:12;;;;;;;12.40;8.10;;;15.20;83.30;;;;;;5013477;28;20193;-86
2022/08/07 07:02:38;;;;;;;8.80;6.50;;;15.20;83.20;;;;;;5013098;28;20599;-86
2022/08/07 07:05:04;;;;;;;9.07;6.90;;;15.30;80.50;;;;;;5011927;28;20181;-86
2022/08/07 07:07:30;;;;;;;10.77;7.00;;;15.40;79.90;;;;;;5011752;28;20205;-86
2022/08/07 07:09:56;;;;;;;8.17;7.20;;;15.50;80.60;;;;;;5011838;28;20306;-85
2022/08/07 07:12:38;;;;;;;9.93;7.10;;;15.70;79.90;;;;;;5013598;28;20174;-86
2022/08/07 07:15:20;;;;;;;9.63;6.77;;;15.70;79.90;;;;;;5015392;28;20169;-85
2022/08/07 07:17:55;;;;;;;9.00;7.40;;;15.70;80.00;;;;;;5015308;28;20184;-86
2022/08/07 07:20:26;;;;;;;10.43;6.57;;;15.70;79.30;;;;;;5015181;28;20181;-85
2022/08/07 07:22:53;;;;;;;10.43;6.97;;;15.90;79.80;;;;;;5015390;28;20170;-85
2022/08/07 07:25:19;;;;;;;9.90;7.37;;;15.90;78.60;;;;;;5016716;28;20541;-86
2022/08/07 07:28:34;;;;;;;13.87;7.10;;;16.00;78.50;;;;;;5014918;28;20188;-85
2022/08/07 07:31:03;;;;;;;7.60;6.80;;;16.10;77.80;;;;;;4985097;28;20225;-86
2022/08/07 07:33:31;;;;;;;7.97;6.10;;;16.20;77.30;;;;;;5015323;28;20192;-84
2022/08/07 07:35:57;;;;;;;13.47;7.77;;;16.30;77.30;;;;;;5014810;28;20251;-84
2022/08/07 07:38:26;;;;;;;10.13;7.72;;;16.30;77.70;;;;;;5014671;28;20182;-85
2022/08/07 07:41:00;;;;;;;8.50;6.87;;;16.30;76.30;;;;;;5014812;28;20203;-84
2022/08/07 07:43:28;;;;;;;11.48;7.18;;;16.60;76.00;;;;;;5014878;28;20172;-84
2022/08/07 07:45:54;;;;;;;11.05;7.82;;;16.50;75.90;;;;;;5015569;28;20244;-86
2022/08/07 07:48:22;;;;;;;7.78;6.40;;;16.50;75.30;;;;;;5014863;28;20205;-85
2022/08/07 07:50:49;;;;;;;8.75;6.85;;;16.80;75.90;;;;;;5014499;28;20209;-85
2022/08/07 07:53:19;;;;;;;11.55;6.88;;;16.80;74.10;;;;;;5015933;28;20177;-86
2022/08/07 07:55:44;;;;;;;11.30;6.47;;;16.90;73.50;;;;;;5015604;28;20242;-85
2022/08/07 07:58:12;;;;;;;10.65;6.53;;;17.00;73.00;;;;;;5015988;28;20252;-85
2022/08/07 08:00:40;;;;;;;10.75;7.35;;;17.10;71.70;;;;;;5014718;28;20181;-85
2022/08/07 08:03:08;;;;;;;7.28;6.28;;;17.20;71.80;;;;;;5015663;28;20204;-85
2022/08/07 08:05:39;;;;;;;8.07;6.50;;;17.20;71.90;;;;;;5015644;28;20247;-85
2022/08/07 08:08:06;;;;;;;7.03;5.88;;;17.30;71.20;;;;;;5014217;28;20178;-84
2022/08/07 08:10:32;;;;;;;7.57;6.78;;;17.30;70.20;;;;;;5015472;28;20193;-85
2022/08/07 08:13:00;;;;;;;9.13;6.93;;;17.50;71.80;;;;;;5015611;28;20170;-86
2022/08/07 08:15:34;;;;;;;7.75;6.30;;;17.20;69.40;;;;;;5015252;28;20181;-86
2022/08/07 08:18:01;;;;;;;12.38;6.75;;;17.40;70.00;;;;;;5013938;28;20260;-85
2022/08/07 08:20:30;;;;;;;7.35;6.53;;;17.60;70.40;;;;;;5015040;28;20178;-85
2022/08/07 08:28:28;;;;;;;8.90;6.00;;;17.80;68.20;;;;;;5015373;28;20541;-84
2022/08/07 08:30:59;;;;;;;9.20;6.63;;;17.60;69.10;;;;;;5013538;28;20577;-85
2022/08/07 08:33:29;;;;;;;6.78;5.63;;;17.70;69.90;;;;;;5015114;28;20265;-85
2022/08/07 08:35:56;;;;;;;7.30;6.13;;;17.70;68.70;;;;;;5013513;28;20272;-84
2022/08/07 08:38:26;;;;;;;8.90;6.55;;;17.70;67.00;;;;;;5014652;28;20180;-84
2022/08/07 08:41:03;;;;;;;8.35;5.72;;;17.80;68.70;;;;;;5014910;28;20185;-84
2022/08/07 08:43:50;;;;;;;8.18;5.70;;;17.90;66.70;;;;;;5013467;28;20173;-85
2022/08/07 08:46:25;;;;;;;10.13;6.10;;;18.10;67.50;;;;;;5014390;28;20283;-85
2022/08/07 08:49:03;;;;;;;7.00;6.32;;;18.30;68.20;;;;;;5013384;28;20180;-85
2022/08/07 08:51:40;;;;;;;6.95;5.63;;;18.20;64.60;;;;;;5013219;28;20228;-84
2022/08/07 08:54:22;;;;;;;9.20;5.80;;;18.30;64.50;;;;;;5014450;28;20153;-84
2022/08/07 08:56:49;;;;;;;6.72;5.50;;;18.20;66.00;;;;;;5014499;28;20197;-85
2022/08/07 08:59:24;;;;;;;6.88;5.45;;;18.30;64.90;;;;;;5014424;28;20216;-85
2022/08/07 09:02:08;;;;;;;6.15;5.47;;;18.40;64.70;;;;;;5014455;28;20255;-85
2022/08/07 09:04:56;;;;;;;6.63;5.22;;;18.40;63.10;;;;;;5013123;28;20172;-86
2022/08/07 09:07:42;;;;;;;8.65;5.28;;;18.60;63.60;;;;;;5014259;28;20189;-86
2022/08/07 09:10:25;;;;;;;6.47;4.72;;;18.70;63.20;;;;;;5014271;28;20189;-86
2022/08/07 09:13:09;;;;;;;5.88;4.78;;;19.10;63.10;;;;;;5013066;28;20647;-86
2022/08/07 09:15:44;;;;;;;8.77;5.53;;;18.80;60.30;;;;;;5014023;28;20216;-86
2022/08/07 09:18:29;;;;;;;6.93;5.32;;;19.00;60.90;;;;;;5012905;28;20173;-85
2022/08/07 09:21:17;;;;;;;5.65;5.15;;;18.90;60.40;;;;;;5013325;28;20169;-86
2022/08/07 09:24:02;;;;;;;6.00;5.25;;;19.20;61.30;;;;;;5012842;28;20173;-85
2022/08/07 09:26:44;;;;;;;5.60;4.75;;;19.40;60.00;;;;;;5012789;28;20205;-86
2022/08/07 09:29:48;;;;;;;6.65;5.50;;;19.30;60.30;;;;;;5013015;28;20169;-86
2022/08/07 09:32:32;;;;;;;9.43;6.00;;;19.50;60.60;;;;;;5012733;28;20602;-86
2022/08/07 09:35:13;;;;;;;6.93;4.85;;;19.70;59.90;;;;;;5012670;28;20176;-85
2022/08/07 09:37:43;;;;;;;7.05;5.40;;;19.90;60.00;;;;;;5014088;28;20196;-85
2022/08/07 09:40:33;;;;;;;5.10;4.60;;;19.60;57.90;;;;;;5013673;28;20169;-85
2022/08/07 09:43:33;;;;;;;8.27;4.85;;;19.80;56.10;;;;;;5013655;28;20176;-85
2022/08/07 09:46:26;;;;;;;4.97;4.57;;;20.10;58.70;;;;;;5012203;28;20216;-85
2022/08/07 09:49:16;;;;;;;6.05;4.43;;;20.50;55.00;;;;;;5012460;28;20174;-85
2022/08/07 09:51:59;;;;;;;4.85;3.92;;;20.00;56.40;;;;;;5013496;28;20189;-85
2022/08/07 09:54:40;;;;;;;6.88;4.47;;;20.30;57.40;;;;;;5013564;28;20244;-85
2022/08/07 09:57:34;;;;;;;4.60;4.10;;;20.70;55.70;;;;;;5012116;28;20189;-85
2022/08/07 10:00:07;;;;;;;5.85;3.95;;;20.70;55.60;;;;;;5015608;28;20667;-85
2022/08/07 10:02:54;;;;;;;4.57;3.70;;;20.50;54.40;;;;;;5013465;28;20181;-85
2022/08/07 10:05:38;;;;;;;6.10;3.90;;;20.20;56.00;;;;;;5013041;28;20169;-84
2022/08/07 10:08:18;;;;;;;7.60;4.05;;;20.60;54.50;;;;;;5012144;28;20173;-84
2022/08/07 10:11:10;;;;;;;4.22;3.65;;;20.80;56.10;;;;;;5012090;28;20205;-85
2022/08/07 10:14:05;;;;;;;6.00;4.00;;;20.70;55.80;;;;;;5012192;28;20169;-87
2022/08/07 10:16:58;;;;;;;6.00;3.65;;;20.90;55.50;;;;;;5013394;28;20188;-85
2022/08/07 10:19:37;;;;;;;6.93;3.83;;;21.20;54.40;;;;;;5013521;28;20169;-83
2022/08/07 10:22:43;;;;;;;3.45;3.10;;;21.90;52.30;;;;;;5012241;28;20213;-83
2022/08/07 10:25:18;;;;;;;3.78;3.25;;;21.50;53.90;;;;;;5014736;28;20165;-85
2022/08/07 10:27:52;;;;;;;4.55;2.83;;;21.20;51.70;;;;;;5013477;28;20203;-84
2022/08/07 10:30:41;;;;;;;3.80;3.38;;;21.20;52.00;;;;;;5011942;28;20197;-84
2022/08/07 10:33:31;;;;;;;3.88;3.20;;;21.80;52.80;;;;;;5013375;28;20250;-84
2022/08/07 10:36:21;;;;;;;3.47;2.97;;;21.20;53.00;;;;;;5012035;28;20217;-84
2022/08/07 10:38:49;;;;;;;3.50;3.20;;;21.30;52.10;;;;;;5012104;28;20169;-84
2022/08/07 10:41:40;;;;;;;5.78;3.30;;;21.40;52.70;;;;;;5012109;28;20177;-84
2022/08/07 10:44:11;;;;;;;5.13;3.80;;;21.80;51.90;;;;;;5027779;28;20284;-85
2022/08/07 10:47:14;;;;;;;3.42;3.13;;;21.30;49.10;;;;;;5011878;28;20695;-84
2022/08/07 10:49:49;;;;;;;5.38;3.28;;;20.80;53.20;;;;;;4995900;28;20217;-83
2022/08/07 10:52:33;;;;;;;4.20;3.70;;;21.10;52.40;;;;;;5016276;28;20276;-85
2022/08/07 10:55:12;;;;;;;2.97;2.67;;;21.50;51.80;;;;;;5015747;28;20162;-83
2022/08/07 10:58:05;;;;;;;3.85;3.42;;;21.50;48.90;;;;;;5015498;28;20165;-84
2022/08/07 11:00:42;;;;;;;4.72;3.75;;;21.80;51.10;;;;;;5011169;28;20220;-84
2022/08/07 11:03:14;;;;;;;4.72;2.83;;;22.40;48.20;;;;;;5015547;28;20176;-84
2022/08/07 11:06:07;;;;;;;4.45;3.05;;;22.30;49.40;;;;;;5016744;28;20211;-84
2022/08/07 11:08:36;;;;;;;5.60;2.92;;;22.40;49.90;;;;;;5015768;28;20533;-84
2022/08/07 11:11:14;;;;;;;3.17;2.88;;;22.80;48.70;;;;;;5016841;28;20201;-85
2022/08/07 11:13:58;;;;;;;3.85;2.70;;;22.90;48.40;;;;;;5016560;28;20254;-85
2022/08/07 11:16:32;;;;;;;5.32;3.58;;;23.10;48.80;;;;;;5016673;28;20563;-86
2022/08/07 11:19:12;;;;;;;5.10;3.42;;;22.40;49.10;;;;;;5015109;28;20173;-86
2022/08/07 11:21:54;;;;;;;3.63;3.03;;;22.00;49.30;;;;;;5015022;28;20173;-86
2022/08/07 11:24:27;;;;;;;3.83;3.33;;;22.00;52.10;;;;;;5015084;28;20165;-86
2022/08/07 11:27:00;;;;;;;3.17;2.88;;;22.70;49.00;;;;;;5014949;28;20208;-86
2022/08/07 11:29:38;;;;;;;3.28;2.97;;;23.10;47.80;;;;;;5014843;28;20170;-86
2022/08/07 11:32:19;;;;;;;4.18;3.25;;;22.80;49.10;;;;;;5014943;28;20173;-86
2022/08/07 11:34:54;;;;;;;5.80;3.10;;;22.70;47.70;;;;;;5015069;28;20166;-86
2022/08/07 11:37:40;;;;;;;5.20;3.25;;;22.60;50.40;;;;;;5016336;28;20193;-86
2022/08/07 11:40:12;;;;;;;3.55;2.88;;;23.10;48.90;;;;;;5015246;28;20265;-86
2022/08/07 11:42:57;;;;;;;3.38;2.83;;;23.40;46.80;;;;;;5015450;28;20175;-86
2022/08/07 11:46:01;;;;;;;3.85;3.00;;;22.70;47.40;;;;;;5015854;28;20169;-85
2022/08/07 11:48:53;;;;;;;3.65;2.60;;;23.40;46.30;;;;;;5016392;28;20208;-86
2022/08/07 11:51:28;;;;;;;3.15;2.88;;;23.30;44.10;;;;;;5015664;28;20200;-86
2022/08/07 11:54:20;;;;;;;7.75;2.78;;;22.70;49.00;;;;;;5014586;28;20231;-86
2022/08/07 11:57:11;;;;;;;4.78;3.45;;;22.70;49.40;;;;;;5014497;28;20202;-86
2022/08/07 12:00:09;;;;;;;3.95;2.97;;;23.20;47.90;;;;;;5015289;28;20200;-86
2022/08/07 12:03:02;;;;;;;3.33;2.63;;;23.60;46.90;;;;;;5014535;28;20157;-86
2022/08/07 12:05:49;;;;;;;4.28;3.10;;;24.00;44.70;;;;;;5014317;28;20400;-85
2022/08/07 12:08:36;;;;;;;4.47;3.17;;;23.00;48.00;;;;;;5014175;28;20170;-86
2022/08/07 12:11:09;;;;;;;5.43;2.92;;;23.00;46.20;;;;;;5014210;28;20581;-85
2022/08/07 12:13:41;;;;;;;4.88;3.00;;;22.70;47.30;;;;;;5015985;28;20249;-85
2022/08/07 12:16:19;;;;;;;4.65;3.22;;;22.70;47.80;;;;;;5015472;28;20216;-85
2022/08/07 12:19:00;;;;;;;4.45;3.10;;;22.50;48.20;;;;;;5015230;28;20162;-86
2022/08/07 12:22:06;;;;;;;3.58;2.90;;;22.70;48.50;;;;;;5015349;28;20577;-85
2022/08/07 12:28:01;;;;;;;5.28;3.30;;;22.60;47.80;;;;;;5016920;28;20172;-86
2022/08/07 12:30:33;;;;;;;3.45;3.15;;;22.30;46.80;;;;;;5014362;28;20193;-85
2022/08/07 12:33:22;;;;;;;4.07;3.17;;;21.80;49.40;;;;;;5013995;28;20166;-86
2022/08/07 12:35:50;;;;;;;3.67;3.22;;;22.00;47.50;;;;;;5015251;28;20663;-86
2022/08/07 12:38:17;;;;;;;4.70;2.95;;;22.20;49.40;;;;;;5013846;28;20176;-86
2022/08/07 12:40:46;;;;;;;4.20;3.25;;;22.70;49.00;;;;;;5013616;28;20545;-85
2022/08/07 12:43:13;;;;;;;3.58;3.20;;;22.80;48.50;;;;;;5014780;28;20173;-86
2022/08/07 12:45:56;;;;;;;5.05;3.03;;;23.00;47.60;;;;;;5014624;28;20209;-86
2022/08/07 12:48:54;;;;;;;4.40;2.97;;;22.40;47.50;;;;;;5014979;28;20166;-87
2022/08/07 12:51:25;;;;;;;3.88;3.20;;;22.60;48.30;;;;;;5013529;28;20218;-86
2022/08/07 12:54:10;;;;;;;3.78;3.42;;;22.80;47.20;;;;;;5014573;28;20227;-86
2022/08/07 12:56:42;;;;;;;3.78;3.03;;;22.50;48.50;;;;;;5014593;28;20208;-86
2022/08/07 12:59:14;;;;;;;5.05;2.83;;;22.70;48.00;;;;;;5013523;28;20251;-86
2022/08/07 13:02:26;;;;;;;5.70;3.15;;;22.80;48.20;;;;;;5014452;28;20169;-86
2022/08/07 13:05:10;;;;;;;3.20;2.88;;;22.70;46.70;;;;;;5013687;28;20166;-86
2022/08/07 13:07:54;;;;;;;3.65;2.97;;;23.00;47.20;;;;;;5013699;28;20205;-86
2022/08/07 13:10:45;;;;;;;3.25;2.92;;;22.60;47.90;;;;;;5012340;28;20633;-86
2022/08/07 13:13:41;;;;;;;3.58;3.03;;;22.70;46.70;;;;;;5013049;28;20168;-86
2022/08/07 13:16:13;;;;;;;3.60;2.70;;;22.90;50.90;;;;;;5014590;28;20664;-86
2022/08/07 13:18:47;;;;;;;3.65;2.90;;;23.20;49.70;;;;;;5014592;28;20185;-86
2022/08/07 13:21:27;;;;;;;5.97;3.15;;;23.40;47.90;;;;;;5014248;28;20189;-86